createdAt,value
2022-12-31T00:00:00.340Z,9.443703
2022-12-31T00:01:00.342Z,9.443717
2022-12-31T00:02:00.427Z,9.443612
2022-12-31T00:03:00.464Z,9.443750
2022-12-31T00:04:00.317Z,9.443802
2022-12-31T00:05:00.333Z,9.443794
2022-12-31T00:06:00.306Z,9.443772
2022-12-31T00:07:00.351Z,9.443723
2022-12-31T00:08:00.320Z,9.443704
2022-12-31T00:09:00.305Z,9.443853
2022-12-31T00:10:00.279Z,9.443902
2022-12-31T00:11:00.294Z,9.443798
2022-12-31T00:12:00.280Z,9.443727
2022-12-31T00:13:00.279Z,9.443757
2022-12-31T00:14:00.260Z,9.443817
2022-12-31T00:15:00.240Z,9.443785
2022-12-31T00:16:00.268Z,9.443734
2022-12-31T00:17:00.290Z,9.443686
2022-12-31T00:18:00.231Z,9.443769
2022-12-31T00:19:00.253Z,9.443728
2022-12-31T00:20:00.246Z,9.443836
2022-12-31T00:21:00.825Z,9.443768
2022-12-31T00:22:00.202Z,9.443756
2022-12-31T00:23:00.194Z,9.443739
2022-12-31T00:24:00.219Z,9.443904
2022-12-31T00:25:00.228Z,9.443893
2022-12-31T00:26:00.167Z,9.443813
2022-12-31T00:27:00.199Z,9.443754
2022-12-31T00:28:00.165Z,9.443741
2022-12-31T00:29:00.151Z,9.443668
2022-12-31T00:30:04.468Z,9.443815
2022-12-31T00:31:01.224Z,9.443752
2022-12-31T00:32:00.204Z,9.443733
2022-12-31T00:33:00.149Z,9.443755
2022-12-31T00:34:00.123Z,9.443673
2022-12-31T00:35:00.182Z,9.443742
2022-12-31T00:36:00.111Z,9.443711
2022-12-31T00:37:00.139Z,9.443697
2022-12-31T00:38:00.161Z,9.443695
2022-12-31T00:39:00.107Z,9.443739
2022-12-31T00:40:00.131Z,9.443744
2022-12-31T00:41:00.114Z,9.443707
2022-12-31T00:42:00.140Z,9.443698
2022-12-31T00:43:00.067Z,9.443655
2022-12-31T00:44:00.101Z,9.443531
2022-12-31T00:45:00.082Z,9.443548
2022-12-31T00:46:00.092Z,9.443666
2022-12-31T00:47:00.093Z,9.443679
2022-12-31T00:48:00.055Z,9.443689
2022-12-31T00:49:00.994Z,9.443715
2022-12-31T00:50:00.021Z,9.443759
2022-12-31T00:51:00.014Z,9.443769
2022-12-31T00:52:00.053Z,9.443745
2022-12-31T00:53:00.051Z,9.443756
2022-12-31T00:54:00.002Z,9.443702
2022-12-31T00:55:00.005Z,9.443715
2022-12-31T00:55:59.986Z,9.443717
2022-12-31T00:56:59.972Z,9.443678
2022-12-31T00:58:00.017Z,9.443666
2022-12-31T00:58:59.957Z,9.443659
2022-12-31T01:00:00.822Z,9.443666
2022-12-31T01:01:00.054Z,9.443729
2022-12-31T01:02:00.110Z,9.443747
2022-12-31T01:03:00.042Z,9.443764
2022-12-31T01:03:59.964Z,9.443756
2022-12-31T01:04:59.936Z,9.443720
2022-12-31T01:05:59.920Z,9.443755
2022-12-31T01:06:59.957Z,9.443804
2022-12-31T01:07:59.903Z,9.443747
2022-12-31T01:08:59.915Z,9.443755
2022-12-31T01:09:59.923Z,9.443749
2022-12-31T01:10:59.913Z,9.443737
2022-12-31T01:11:59.892Z,9.443714
2022-12-31T01:12:59.903Z,9.443686
2022-12-31T01:13:59.966Z,9.443654
2022-12-31T01:14:59.853Z,9.443714
2022-12-31T01:15:59.896Z,9.443661
2022-12-31T01:16:59.845Z,9.443698
2022-12-31T01:17:59.835Z,9.443698
2022-12-31T01:18:59.893Z,9.443639
2022-12-31T01:19:59.840Z,9.443675
2022-12-31T01:20:59.830Z,9.443728
2022-12-31T01:21:59.844Z,9.443676
2022-12-31T01:22:59.804Z,9.443736
2022-12-31T01:23:59.828Z,9.443726
2022-12-31T01:24:59.845Z,9.443760
2022-12-31T01:25:59.784Z,9.443727
2022-12-31T01:26:59.781Z,9.443743
2022-12-31T01:27:59.806Z,9.443749
2022-12-31T01:28:59.788Z,9.443721
2022-12-31T01:29:59.764Z,9.443672
2022-12-31T01:30:59.848Z,9.443698
2022-12-31T01:31:59.748Z,9.443727
2022-12-31T01:32:59.746Z,9.443738
2022-12-31T01:33:59.776Z,9.443713
2022-12-31T01:34:59.763Z,9.443702
2022-12-31T01:35:59.770Z,9.443732
2022-12-31T01:36:59.743Z,9.443794
2022-12-31T01:37:59.713Z,9.443767
2022-12-31T01:38:59.731Z,9.443723
2022-12-31T01:39:59.734Z,9.443685
2022-12-31T01:40:59.694Z,9.443703
2022-12-31T01:41:59.682Z,9.443712
2022-12-31T01:42:59.705Z,9.443715
2022-12-31T01:44:00.244Z,9.443748
2022-12-31T01:44:59.728Z,9.443729
2022-12-31T01:45:59.831Z,9.443698
2022-12-31T01:46:59.653Z,9.443697
2022-12-31T01:47:59.643Z,9.443681
2022-12-31T01:48:59.670Z,9.443680
2022-12-31T01:49:59.643Z,9.443621
2022-12-31T01:50:59.660Z,9.443620
2022-12-31T01:51:59.639Z,9.443683
2022-12-31T01:52:59.615Z,9.443698
2022-12-31T01:53:59.619Z,9.443699
2022-12-31T01:54:59.628Z,9.443702
2022-12-31T01:55:59.615Z,9.443725
2022-12-31T01:56:59.593Z,9.443707
2022-12-31T01:57:59.620Z,9.443730
2022-12-31T01:58:59.603Z,9.443664
2022-12-31T01:59:59.578Z,9.443627
2022-12-31T02:00:59.615Z,9.443686
2022-12-31T02:01:59.732Z,9.443696
2022-12-31T02:02:59.630Z,9.443702
2022-12-31T02:03:59.570Z,9.443702
2022-12-31T02:04:59.556Z,9.443727
2022-12-31T02:05:59.558Z,9.443730
2022-12-31T02:06:59.582Z,9.443713
2022-12-31T02:07:59.520Z,9.443740
2022-12-31T02:08:59.508Z,9.443648
2022-12-31T02:09:59.541Z,9.443690
2022-12-31T02:10:59.535Z,9.443621
2022-12-31T02:11:59.500Z,9.443709
2022-12-31T02:12:59.545Z,9.443645
2022-12-31T02:13:59.502Z,9.443718
2022-12-31T02:14:59.511Z,9.443739
2022-12-31T02:15:59.545Z,9.443785
2022-12-31T02:16:59.492Z,9.444037
2022-12-31T02:18:00.518Z,9.443897
2022-12-31T02:19:00.486Z,9.443780
2022-12-31T02:19:59.455Z,9.443701
2022-12-31T02:20:59.442Z,9.443603
2022-12-31T02:21:59.484Z,9.443633
2022-12-31T02:22:59.459Z,9.443711
2022-12-31T02:23:59.444Z,9.443723
2022-12-31T02:24:59.458Z,9.443749
2022-12-31T02:25:59.410Z,9.443701
2022-12-31T02:26:59.413Z,9.443608
2022-12-31T02:27:59.442Z,9.443585
2022-12-31T02:28:59.406Z,9.443711
2022-12-31T02:29:59.419Z,9.443744
2022-12-31T02:30:59.427Z,9.443786
2022-12-31T02:31:59.413Z,9.443792
2022-12-31T02:33:00.777Z,9.443829
2022-12-31T02:33:59.404Z,9.443733
2022-12-31T02:34:59.371Z,9.443788
2022-12-31T02:35:59.367Z,9.443865
2022-12-31T02:36:59.370Z,9.443830
2022-12-31T02:37:59.353Z,9.443843
2022-12-31T02:38:59.346Z,9.443886
2022-12-31T02:39:59.350Z,9.443911
2022-12-31T02:40:59.321Z,9.443875
2022-12-31T02:41:59.318Z,9.443877
2022-12-31T02:42:59.335Z,9.443891
2022-12-31T02:43:59.310Z,9.443836
2022-12-31T02:44:59.321Z,9.443733
2022-12-31T02:45:59.309Z,9.443777
2022-12-31T02:46:59.287Z,9.443878
2022-12-31T02:47:59.279Z,9.443823
2022-12-31T02:48:59.282Z,9.443809
2022-12-31T02:49:59.284Z,9.443834
2022-12-31T02:50:59.273Z,9.443826
2022-12-31T02:51:59.278Z,9.443843
2022-12-31T02:52:59.239Z,9.443838
2022-12-31T02:53:59.231Z,9.443808
2022-12-31T02:54:59.275Z,9.443855
2022-12-31T02:55:59.742Z,9.443824
2022-12-31T02:56:59.204Z,9.443834
2022-12-31T02:57:59.244Z,9.443851
2022-12-31T02:58:59.204Z,9.443842
2022-12-31T02:59:59.213Z,9.443807
2022-12-31T03:00:59.320Z,9.443810
2022-12-31T03:01:59.408Z,9.443831
2022-12-31T03:02:59.249Z,9.443810
2022-12-31T03:03:59.196Z,9.443761
2022-12-31T03:04:59.196Z,9.443791
2022-12-31T03:05:59.163Z,9.443803
2022-12-31T03:06:59.187Z,9.443798
2022-12-31T03:07:59.151Z,9.443812
2022-12-31T03:08:59.164Z,9.443836
2022-12-31T03:09:59.158Z,9.443904
2022-12-31T03:10:59.145Z,9.443818
2022-12-31T03:11:59.148Z,9.443842
2022-12-31T03:12:59.119Z,9.443908
2022-12-31T03:13:59.115Z,9.443829
2022-12-31T03:14:59.156Z,9.443702
2022-12-31T03:15:59.130Z,9.443666
2022-12-31T03:16:59.085Z,9.443711
2022-12-31T03:17:59.167Z,9.443712
2022-12-31T03:18:59.078Z,9.443658
2022-12-31T03:19:59.131Z,9.443725
2022-12-31T03:20:59.115Z,9.443654
2022-12-31T03:21:59.161Z,9.443858
2022-12-31T03:22:59.060Z,9.443790
2022-12-31T03:23:59.076Z,9.443640
2022-12-31T03:24:59.041Z,9.443593
2022-12-31T03:25:59.052Z,9.443584
2022-12-31T03:26:59.076Z,9.443546
2022-12-31T03:27:59.021Z,9.443610
2022-12-31T03:28:59.022Z,9.443666
2022-12-31T03:29:59.031Z,9.443744
2022-12-31T03:30:59.022Z,9.443610
2022-12-31T03:31:58.994Z,9.443583
2022-12-31T03:32:59.011Z,9.443565
2022-12-31T03:33:58.986Z,9.443584
2022-12-31T03:34:58.972Z,9.443634
2022-12-31T03:35:58.993Z,9.443624
2022-12-31T03:36:58.967Z,9.443586
2022-12-31T03:37:58.961Z,9.443666
2022-12-31T03:38:58.967Z,9.443652
2022-12-31T03:39:58.957Z,9.443691
2022-12-31T03:40:58.935Z,9.443746
2022-12-31T03:41:58.962Z,9.443736
2022-12-31T03:42:58.930Z,9.443733
2022-12-31T03:43:58.912Z,9.443758
2022-12-31T03:44:59.087Z,9.443727
2022-12-31T03:45:58.959Z,9.443697
2022-12-31T03:46:58.906Z,9.443651
2022-12-31T03:47:58.910Z,9.443650
2022-12-31T03:48:58.889Z,9.443709
2022-12-31T03:49:58.879Z,9.443671
2022-12-31T03:50:58.914Z,9.443604
2022-12-31T03:51:58.864Z,9.443640
2022-12-31T03:52:58.859Z,9.443658
2022-12-31T03:53:58.872Z,9.443672
2022-12-31T03:54:58.859Z,9.443645
2022-12-31T03:55:58.851Z,9.443658
2022-12-31T03:57:00.422Z,9.443736
2022-12-31T03:57:59.828Z,9.443663
2022-12-31T03:58:58.826Z,9.443563
2022-12-31T03:59:58.846Z,9.443624
2022-12-31T04:00:58.981Z,9.443735
2022-12-31T04:01:58.901Z,9.443701
2022-12-31T04:02:58.860Z,9.443717
2022-12-31T04:03:58.788Z,9.443655
2022-12-31T04:04:58.774Z,9.443719
2022-12-31T04:05:58.816Z,9.443729
2022-12-31T04:06:58.759Z,9.443755
2022-12-31T04:07:58.791Z,9.443727
2022-12-31T04:08:58.787Z,9.443693
2022-12-31T04:09:58.794Z,9.443698
2022-12-31T04:10:58.752Z,9.443704
2022-12-31T04:11:58.771Z,9.443631
2022-12-31T04:12:58.731Z,9.443673
2022-12-31T04:13:58.716Z,9.443653
2022-12-31T04:14:58.731Z,9.443780
2022-12-31T04:15:58.763Z,9.443793
2022-12-31T04:16:58.709Z,9.443707
2022-12-31T04:17:58.720Z,9.443712
2022-12-31T04:18:58.691Z,9.443706
2022-12-31T04:19:58.687Z,9.443667
2022-12-31T04:20:58.739Z,9.443665
2022-12-31T04:21:58.675Z,9.443603
2022-12-31T04:22:58.664Z,9.443623
2022-12-31T04:23:58.688Z,9.443561
2022-12-31T04:24:58.649Z,9.443373
2022-12-31T04:25:58.671Z,9.443537
2022-12-31T04:27:03.605Z,9.443529
2022-12-31T04:28:00.642Z,9.443667
2022-12-31T04:28:58.626Z,9.443748
2022-12-31T04:29:58.650Z,9.443771
2022-12-31T04:30:58.648Z,9.443706
2022-12-31T04:31:58.666Z,9.443811
2022-12-31T04:32:58.638Z,9.443563
2022-12-31T04:33:58.608Z,9.443618
2022-12-31T04:34:58.611Z,9.443715
2022-12-31T04:35:58.631Z,9.443735
2022-12-31T04:36:58.599Z,9.443789
2022-12-31T04:37:58.583Z,9.443724
2022-12-31T04:38:58.601Z,9.443794
2022-12-31T04:40:05.143Z,9.443725
2022-12-31T04:41:00.564Z,9.443740
2022-12-31T04:41:58.655Z,9.443609
2022-12-31T04:42:58.543Z,9.443705
2022-12-31T04:43:58.553Z,9.443790
2022-12-31T04:44:58.558Z,9.443852
2022-12-31T04:45:58.564Z,9.443766
2022-12-31T04:46:58.539Z,9.443613
2022-12-31T04:47:58.537Z,9.443633
2022-12-31T04:48:58.506Z,9.443576
2022-12-31T04:49:58.518Z,9.443667
2022-12-31T04:50:58.525Z,9.443728
2022-12-31T04:51:58.485Z,9.443821
2022-12-31T04:52:58.503Z,9.443619
2022-12-31T04:53:58.525Z,9.443643
2022-12-31T04:54:58.481Z,9.443788
2022-12-31T04:55:58.463Z,9.443814
2022-12-31T04:56:58.476Z,9.443755
2022-12-31T04:57:58.478Z,9.443720
2022-12-31T04:58:58.460Z,9.443683
2022-12-31T04:59:58.463Z,9.443785
2022-12-31T05:00:58.474Z,9.443728
2022-12-31T05:01:58.630Z,9.443689
2022-12-31T05:02:58.529Z,9.443798
2022-12-31T05:03:58.417Z,9.443750
2022-12-31T05:04:58.416Z,9.443789
2022-12-31T05:05:58.432Z,9.443717
2022-12-31T05:06:58.421Z,9.443769
2022-12-31T05:07:58.433Z,9.443678
2022-12-31T05:08:58.418Z,9.443716
2022-12-31T05:09:58.385Z,9.443733
2022-12-31T05:10:58.375Z,9.443757
2022-12-31T05:11:58.409Z,9.443662
2022-12-31T05:12:58.378Z,9.443735
2022-12-31T05:13:58.384Z,9.443800
2022-12-31T05:14:58.371Z,9.443770
2022-12-31T05:15:58.341Z,9.443745
2022-12-31T05:16:58.381Z,9.443756
2022-12-31T05:17:58.364Z,9.443789
2022-12-31T05:18:58.357Z,9.443703
2022-12-31T05:19:58.325Z,9.443691
2022-12-31T05:20:58.335Z,9.443770
2022-12-31T05:21:58.313Z,9.443726
2022-12-31T05:22:58.304Z,9.443724
2022-12-31T05:23:58.325Z,9.443706
2022-12-31T05:24:58.317Z,9.443692
2022-12-31T05:25:58.276Z,9.443795
2022-12-31T05:26:58.311Z,9.443781
2022-12-31T05:27:58.279Z,9.443713
2022-12-31T05:28:58.263Z,9.443731
2022-12-31T05:29:58.288Z,9.443732
2022-12-31T05:30:58.282Z,9.443740
2022-12-31T05:31:58.246Z,9.443667
2022-12-31T05:32:59.239Z,9.443734
2022-12-31T05:33:58.243Z,9.443729
2022-12-31T05:34:58.241Z,9.443752
2022-12-31T05:35:58.240Z,9.443728
2022-12-31T05:36:58.216Z,9.443764
2022-12-31T05:37:58.212Z,9.443756
2022-12-31T05:38:58.392Z,9.443726
2022-12-31T05:39:58.223Z,9.443726
2022-12-31T05:40:58.191Z,9.443691
2022-12-31T05:41:58.204Z,9.443700
2022-12-31T05:42:58.174Z,9.443708
2022-12-31T05:43:58.167Z,9.443715
2022-12-31T05:44:58.211Z,9.443723
2022-12-31T05:45:58.203Z,9.443742
2022-12-31T05:46:58.140Z,9.443695
2022-12-31T05:47:59.184Z,9.443727
2022-12-31T05:48:58.144Z,9.443615
2022-12-31T05:49:58.132Z,9.443686
2022-12-31T05:50:58.161Z,9.443730
2022-12-31T05:51:58.120Z,9.443732
2022-12-31T05:52:58.109Z,9.443712
2022-12-31T05:53:58.130Z,9.443709
2022-12-31T05:54:58.123Z,9.443706
2022-12-31T05:55:58.077Z,9.443743
2022-12-31T05:56:58.129Z,9.443693
2022-12-31T05:57:58.080Z,9.443691
2022-12-31T05:58:58.070Z,9.443731
2022-12-31T05:59:58.109Z,9.443720
2022-12-31T06:00:58.074Z,9.443711
2022-12-31T06:01:58.053Z,9.443705
2022-12-31T06:02:58.183Z,9.443707
2022-12-31T06:03:58.122Z,9.443746
2022-12-31T06:04:58.042Z,9.443762
2022-12-31T06:05:58.079Z,9.443783
2022-12-31T06:06:58.028Z,9.443818
2022-12-31T06:07:58.024Z,9.443775
2022-12-31T06:08:58.058Z,9.443714
2022-12-31T06:09:58.009Z,9.443664
2022-12-31T06:10:58.134Z,9.443722
2022-12-31T06:11:58.023Z,9.443720
2022-12-31T06:12:57.976Z,9.443737
2022-12-31T06:13:57.978Z,9.443743
2022-12-31T06:14:58.004Z,9.443738
2022-12-31T06:15:57.994Z,9.443739
2022-12-31T06:16:57.984Z,9.443758
2022-12-31T06:17:57.982Z,9.443735
2022-12-31T06:18:57.947Z,9.443747
2022-12-31T06:19:57.940Z,9.443771
2022-12-31T06:20:57.974Z,9.443737
2022-12-31T06:21:57.924Z,9.443732
2022-12-31T06:22:57.941Z,9.443746
2022-12-31T06:23:57.942Z,9.443743
2022-12-31T06:24:57.921Z,9.443801
2022-12-31T06:25:57.916Z,9.443795
2022-12-31T06:26:57.913Z,9.443831
2022-12-31T06:27:57.891Z,9.443825
2022-12-31T06:28:57.897Z,9.443757
2022-12-31T06:29:57.897Z,9.443868
2022-12-31T06:30:57.903Z,9.443801
2022-12-31T06:31:57.894Z,9.443823
2022-12-31T06:32:57.889Z,9.443782
2022-12-31T06:33:57.878Z,9.443796
2022-12-31T06:34:57.845Z,9.443784
2022-12-31T06:35:57.865Z,9.443812
2022-12-31T06:36:57.851Z,9.443715
2022-12-31T06:37:57.838Z,9.443783
2022-12-31T06:38:57.868Z,9.443776
2022-12-31T06:39:57.831Z,9.443772
2022-12-31T06:40:57.796Z,9.443767
2022-12-31T06:41:58.833Z,9.443808
2022-12-31T06:43:00.111Z,9.443801
2022-12-31T06:43:58.791Z,9.443884
2022-12-31T06:44:57.817Z,9.443793
2022-12-31T06:45:57.789Z,9.443767
2022-12-31T06:46:57.768Z,9.443684
2022-12-31T06:47:57.795Z,9.443742
2022-12-31T06:48:57.752Z,9.443742
2022-12-31T06:49:57.791Z,9.443758
2022-12-31T06:50:57.754Z,9.443761
2022-12-31T06:51:57.740Z,9.443728
2022-12-31T06:52:57.733Z,9.443759
2022-12-31T06:53:57.761Z,9.443769
2022-12-31T06:54:57.728Z,9.443692
2022-12-31T06:55:57.712Z,9.443667
2022-12-31T06:56:57.737Z,9.443662
2022-12-31T06:57:57.706Z,9.443669
2022-12-31T06:58:57.697Z,9.443626
2022-12-31T06:59:57.759Z,9.443686
2022-12-31T07:00:57.685Z,9.443701
2022-12-31T07:01:57.802Z,9.443653
2022-12-31T07:02:57.712Z,9.443601
2022-12-31T07:03:57.663Z,9.443582
2022-12-31T07:04:57.671Z,9.443636
2022-12-31T07:05:57.681Z,9.443662
2022-12-31T07:06:57.638Z,9.443652
2022-12-31T07:07:57.644Z,9.443581
2022-12-31T07:08:57.711Z,9.443409
2022-12-31T07:09:57.654Z,9.443544
2022-12-31T07:10:57.622Z,9.443626
2022-12-31T07:11:57.656Z,9.443697
2022-12-31T07:12:58.290Z,9.443743
2022-12-31T07:14:00.504Z,9.443729
2022-12-31T07:14:57.634Z,9.443662
2022-12-31T07:15:57.631Z,9.443658
2022-12-31T07:16:57.611Z,9.443653
2022-12-31T07:17:57.580Z,9.443704
2022-12-31T07:18:57.600Z,9.443757
2022-12-31T07:19:58.086Z,9.443636
2022-12-31T07:20:58.583Z,9.443590
2022-12-31T07:21:57.585Z,9.443587
2022-12-31T07:22:57.556Z,9.443627
2022-12-31T07:23:57.561Z,9.443697
2022-12-31T07:24:57.578Z,9.443622
2022-12-31T07:25:57.544Z,9.443651
2022-12-31T07:26:57.543Z,9.443541
2022-12-31T07:27:57.526Z,9.443692
2022-12-31T07:28:57.516Z,9.443603
2022-12-31T07:29:57.506Z,9.443564
2022-12-31T07:30:57.539Z,9.443643
2022-12-31T07:31:57.503Z,9.443674
2022-12-31T07:32:57.507Z,9.443656
2022-12-31T07:33:57.503Z,9.443653
2022-12-31T07:34:57.511Z,9.443689
2022-12-31T07:35:57.472Z,9.443651
2022-12-31T07:36:57.484Z,9.443625
2022-12-31T07:37:57.438Z,9.443677
2022-12-31T07:38:57.474Z,9.443689
2022-12-31T07:39:57.453Z,9.443692
2022-12-31T07:40:57.984Z,9.443707
2022-12-31T07:41:58.443Z,9.443762
2022-12-31T07:42:57.438Z,9.443682
2022-12-31T07:43:57.404Z,9.443681
2022-12-31T07:44:57.414Z,9.443647
2022-12-31T07:45:57.432Z,9.443659
2022-12-31T07:46:57.443Z,9.443742
2022-12-31T07:48:02.234Z,9.443714
2022-12-31T07:48:59.395Z,9.443661
2022-12-31T07:49:57.375Z,9.443686
2022-12-31T07:50:57.372Z,9.443686
2022-12-31T07:51:57.362Z,9.443654
2022-12-31T07:52:57.386Z,9.443598
2022-12-31T07:53:57.374Z,9.443661
2022-12-31T07:54:57.340Z,9.443677
2022-12-31T07:55:57.330Z,9.443653
2022-12-31T07:56:57.323Z,9.443673
2022-12-31T07:57:57.315Z,9.443744
2022-12-31T07:58:57.328Z,9.443779
2022-12-31T07:59:57.320Z,9.443781
2022-12-31T08:00:57.409Z,9.443764
2022-12-31T08:01:57.391Z,9.443631
2022-12-31T08:02:57.375Z,9.443692
2022-12-31T08:03:57.299Z,9.443780
2022-12-31T08:04:57.300Z,9.443863
2022-12-31T08:05:57.371Z,9.443975
2022-12-31T08:06:57.271Z,9.443937
2022-12-31T08:07:58.309Z,9.443856
2022-12-31T08:08:57.270Z,9.443874
2022-12-31T08:09:57.257Z,9.443930
2022-12-31T08:10:57.231Z,9.443954
2022-12-31T08:11:58.229Z,9.443965
2022-12-31T08:12:57.256Z,9.443893
2022-12-31T08:13:57.223Z,9.443916
2022-12-31T08:14:57.251Z,9.443968
2022-12-31T08:15:57.243Z,9.443905
2022-12-31T08:16:57.227Z,9.443938
2022-12-31T08:17:57.187Z,9.443873
2022-12-31T08:18:57.198Z,9.443756
2022-12-31T08:19:57.187Z,9.443755
2022-12-31T08:20:57.171Z,9.443895
2022-12-31T08:21:57.160Z,9.443898
2022-12-31T08:22:57.167Z,9.443927
2022-12-31T08:23:57.157Z,9.443984
2022-12-31T08:24:57.147Z,9.443872
2022-12-31T08:25:57.125Z,9.443871
2022-12-31T08:26:57.140Z,9.443911
2022-12-31T08:27:57.150Z,9.443904
2022-12-31T08:28:57.116Z,9.443918
2022-12-31T08:29:57.113Z,9.443849
2022-12-31T08:30:57.094Z,9.443913
2022-12-31T08:31:57.172Z,9.443963
2022-12-31T08:32:57.078Z,9.443907
2022-12-31T08:34:00.678Z,9.443866
2022-12-31T08:34:59.072Z,9.443746
2022-12-31T08:35:57.064Z,9.443472
2022-12-31T08:36:57.057Z,9.443582
2022-12-31T08:37:57.081Z,9.443658
2022-12-31T08:38:57.074Z,9.443625
2022-12-31T08:39:57.085Z,9.443572
2022-12-31T08:40:57.041Z,9.443650
2022-12-31T08:41:57.048Z,9.443621
2022-12-31T08:42:57.025Z,9.443690
2022-12-31T08:43:57.052Z,9.443632
2022-12-31T08:44:58.008Z,9.443712
2022-12-31T08:45:57.053Z,9.443756
2022-12-31T08:46:57.041Z,9.443649
2022-12-31T08:48:00.112Z,9.443612
2022-12-31T08:48:58.014Z,9.443751
2022-12-31T08:49:56.966Z,9.443770
2022-12-31T08:50:56.958Z,9.443745
2022-12-31T08:51:56.981Z,9.443767
2022-12-31T08:52:56.964Z,9.443781
2022-12-31T08:53:56.946Z,9.443800
2022-12-31T08:54:56.955Z,9.443803
2022-12-31T08:55:56.929Z,9.443854
2022-12-31T08:56:56.925Z,9.443675
2022-12-31T08:57:56.918Z,9.443825
2022-12-31T08:58:56.930Z,9.443749
2022-12-31T08:59:56.943Z,9.443750
2022-12-31T09:00:56.989Z,9.443797
2022-12-31T09:01:56.990Z,9.443753
2022-12-31T09:02:56.892Z,9.443752
2022-12-31T09:03:56.923Z,9.443759
2022-12-31T09:04:56.921Z,9.443768
2022-12-31T09:05:56.875Z,9.443770
2022-12-31T09:06:56.885Z,9.443756
2022-12-31T09:07:56.855Z,9.443801
2022-12-31T09:08:56.879Z,9.443826
2022-12-31T09:09:56.853Z,9.443791
2022-12-31T09:10:56.886Z,9.443810
2022-12-31T09:11:56.829Z,9.443810
2022-12-31T09:12:56.856Z,9.443832
2022-12-31T09:13:56.897Z,9.443729
2022-12-31T09:14:56.829Z,9.443822
2022-12-31T09:15:56.820Z,9.443827
2022-12-31T09:16:56.851Z,9.443810
2022-12-31T09:17:56.782Z,9.443793
2022-12-31T09:18:56.801Z,9.443825
2022-12-31T09:19:56.761Z,9.443862
2022-12-31T09:20:56.772Z,9.443795
2022-12-31T09:21:56.799Z,9.443777
2022-12-31T09:22:56.756Z,9.443758
2022-12-31T09:23:56.757Z,9.443700
2022-12-31T09:24:56.764Z,9.443697
2022-12-31T09:25:56.725Z,9.443704
2022-12-31T09:26:56.731Z,9.443845
2022-12-31T09:27:56.805Z,9.443782
2022-12-31T09:28:56.752Z,9.443805
2022-12-31T09:29:56.735Z,9.443894
2022-12-31T09:30:56.705Z,9.443828
2022-12-31T09:31:56.861Z,9.443779
2022-12-31T09:33:00.785Z,9.443730
2022-12-31T09:33:57.666Z,9.443658
2022-12-31T09:34:56.659Z,9.443713
2022-12-31T09:35:56.667Z,9.443744
2022-12-31T09:36:56.702Z,9.443704
2022-12-31T09:37:56.716Z,9.443867
2022-12-31T09:38:56.653Z,9.443858
2022-12-31T09:39:56.653Z,9.443746
2022-12-31T09:40:56.637Z,9.443763
2022-12-31T09:41:56.616Z,9.443883
2022-12-31T09:42:56.620Z,9.443794
2022-12-31T09:44:00.934Z,9.443805
2022-12-31T09:44:57.600Z,9.443806
2022-12-31T09:45:56.738Z,9.443744
2022-12-31T09:46:56.629Z,9.443762
2022-12-31T09:47:56.605Z,9.443776
2022-12-31T09:48:56.597Z,9.443749
2022-12-31T09:49:56.582Z,9.443697
2022-12-31T09:50:56.579Z,9.443667
2022-12-31T09:51:56.553Z,9.443611
2022-12-31T09:52:56.559Z,9.443604
2022-12-31T09:53:56.548Z,9.443674
2022-12-31T09:54:56.584Z,9.443725
2022-12-31T09:55:56.559Z,9.443756
2022-12-31T09:56:59.122Z,9.443741
2022-12-31T09:57:57.543Z,9.443737
2022-12-31T09:58:56.506Z,9.443738
2022-12-31T09:59:56.522Z,9.443727
2022-12-31T10:00:56.682Z,9.443660
2022-12-31T10:01:56.698Z,9.443686
2022-12-31T10:02:56.594Z,9.443760
2022-12-31T10:03:56.490Z,9.443747
2022-12-31T10:04:56.473Z,9.443717
2022-12-31T10:05:56.460Z,9.443703
2022-12-31T10:06:56.492Z,9.443725
2022-12-31T10:07:56.465Z,9.443707
2022-12-31T10:08:56.473Z,9.443693
2022-12-31T10:09:56.441Z,9.443720
2022-12-31T10:10:56.437Z,9.443781
2022-12-31T10:11:56.404Z,9.443701
2022-12-31T10:12:56.438Z,9.443675
2022-12-31T10:13:56.431Z,9.443703
2022-12-31T10:14:56.402Z,9.443787
2022-12-31T10:15:56.418Z,9.443837
2022-12-31T10:16:56.457Z,9.443813
2022-12-31T10:17:56.355Z,9.443851
2022-12-31T10:18:56.371Z,9.443816
2022-12-31T10:19:56.411Z,9.443776
2022-12-31T10:20:56.372Z,9.443710
2022-12-31T10:21:56.382Z,9.443675
2022-12-31T10:22:56.325Z,9.443671
2022-12-31T10:23:56.340Z,9.443753
2022-12-31T10:24:56.338Z,9.443707
2022-12-31T10:25:56.331Z,9.443789
2022-12-31T10:26:56.300Z,9.443764
2022-12-31T10:27:56.348Z,9.443657
2022-12-31T10:28:56.308Z,9.443757
2022-12-31T10:29:56.325Z,9.443788
2022-12-31T10:30:56.310Z,9.443736
2022-12-31T10:31:56.283Z,9.443698
2022-12-31T10:32:56.265Z,9.443754
2022-12-31T10:33:56.260Z,9.443718
2022-12-31T10:34:56.362Z,9.443649
2022-12-31T10:35:56.252Z,9.443717
2022-12-31T10:36:56.231Z,9.443660
2022-12-31T10:37:56.241Z,9.443582
2022-12-31T10:38:56.218Z,9.443608
2022-12-31T10:39:56.213Z,9.443623
2022-12-31T10:40:56.219Z,9.443663
2022-12-31T10:41:56.227Z,9.443516
2022-12-31T10:42:56.191Z,9.443479
2022-12-31T10:43:56.212Z,9.443471
2022-12-31T10:44:56.173Z,9.443702
2022-12-31T10:45:56.225Z,9.443780
2022-12-31T10:46:56.190Z,9.443830
2022-12-31T10:47:56.170Z,9.443781
2022-12-31T10:48:56.156Z,9.443755
2022-12-31T10:49:56.161Z,9.443788
2022-12-31T10:50:56.768Z,9.443772
2022-12-31T10:51:56.143Z,9.443652
2022-12-31T10:52:56.148Z,9.443742
2022-12-31T10:53:56.146Z,9.443763
2022-12-31T10:54:56.102Z,9.443707
2022-12-31T10:55:56.128Z,9.443746
2022-12-31T10:56:56.119Z,9.443725
2022-12-31T10:58:00.303Z,9.443776
2022-12-31T10:58:58.077Z,9.443724
2022-12-31T10:59:56.094Z,9.443707
2022-12-31T11:00:56.172Z,9.443759
2022-12-31T11:01:56.206Z,9.443765
2022-12-31T11:02:56.133Z,9.443750
2022-12-31T11:03:56.064Z,9.443757
2022-12-31T11:04:56.034Z,9.443739
2022-12-31T11:05:56.044Z,9.443702
2022-12-31T11:06:56.028Z,9.443748
2022-12-31T11:07:56.041Z,9.443744
2022-12-31T11:08:56.012Z,9.443793
2022-12-31T11:09:56.020Z,9.443693
2022-12-31T11:10:56.002Z,9.443782
2022-12-31T11:11:56.018Z,9.443791
2022-12-31T11:12:55.987Z,9.443826
2022-12-31T11:13:56.773Z,9.443528
2022-12-31T11:14:55.985Z,9.443500
2022-12-31T11:15:56.017Z,9.443583
2022-12-31T11:16:55.954Z,9.443617
2022-12-31T11:17:55.962Z,9.443604
2022-12-31T11:18:56.196Z,9.443650
2022-12-31T11:19:55.948Z,9.443734
2022-12-31T11:20:55.974Z,9.443654
2022-12-31T11:21:55.938Z,9.443607
2022-12-31T11:22:55.911Z,9.443593
2022-12-31T11:23:55.906Z,9.443649
2022-12-31T11:24:55.913Z,9.443725
2022-12-31T11:25:55.916Z,9.443767
2022-12-31T11:26:55.895Z,9.443605
2022-12-31T11:27:55.897Z,9.443671
2022-12-31T11:28:55.862Z,9.443544
2022-12-31T11:29:55.869Z,9.443652
2022-12-31T11:30:55.992Z,9.443747
2022-12-31T11:31:55.857Z,9.443728
2022-12-31T11:32:55.850Z,9.443778
2022-12-31T11:33:55.868Z,9.443737
2022-12-31T11:34:55.835Z,9.443684
2022-12-31T11:35:55.842Z,9.443695
2022-12-31T11:36:55.831Z,9.443632
2022-12-31T11:37:55.841Z,9.443619
2022-12-31T11:38:55.813Z,9.443679
2022-12-31T11:39:55.807Z,9.443692
2022-12-31T11:40:55.812Z,9.443583
2022-12-31T11:41:55.806Z,9.443706
2022-12-31T11:42:56.806Z,9.443684
2022-12-31T11:43:55.781Z,9.443652